WetterOnline ( https://www.wetteronline.de )

Wetter aktuell Ekerö

Aktuelles Wetter: Harsfjarden (3m)

6-stündlich | Neueste Meldungen
Ortszeit Temperatur Wetter
Sa, 16.10. 8:00 3.5° C leicht bewölkt
Sa, 16.10. 2:00 3.8° C wolkenlos
Fr, 15.10. 20:00 5.5° C wolkenlos
Fr, 15.10. 14:00 9.6° C leichter Regen
Fr, 15.10. 8:00 10.7° C Sprühregen
Fr, 15.10. 2:00 10.9° C bedeckt
Do, 14.10. 20:00 10.5° C leicht bewölkt
Do, 14.10. 14:00 9.9° C bedeckt
Ortszeit Temperatur Wetter
Sa, 16.10. 13:00 10.9° C wolkenlos
Sa, 16.10. 12:00 10.2° C wolkenlos
Sa, 16.10. 11:00 8.9° C wolkenlos
Sa, 16.10. 10:00 7.1° C wolkenlos
Sa, 16.10. 9:00 5.0° C leicht bewölkt
Sa, 16.10. 8:00 3.5° C leicht bewölkt
Ortszeit Relative Feuchte Sichtweite
Sa, 16.10. 8:00 89% 50 km
Sa, 16.10. 2:00 80% 50 km
Fr, 15.10. 20:00 75% 50 km
Fr, 15.10. 14:00 78% 27 km
Fr, 15.10. 8:00 99% 17 km
Fr, 15.10. 2:00 92% 45 km
Do, 14.10. 20:00 95% 50 km
Do, 14.10. 14:00 95% 50 km
Ortszeit Relative Feuchte Sichtweite
Sa, 16.10. 13:00 64% 45 km
Sa, 16.10. 12:00 64% 45 km
Sa, 16.10. 11:00 71% 45 km
Sa, 16.10. 10:00 80% 45 km
Sa, 16.10. 9:00 87% 45 km
Sa, 16.10. 8:00 89% 50 km
Ortszeit Niederschlagsmenge Niederschlagsart
Sa, 16.10. 8:00 0.0 l/m2 in 12 Std. -
Sa, 16.10. 2:00 0.0 l/m2 in 6 Std. -
Fr, 15.10. 20:00 0.4 l/m2 in 12 Std. Regenschauer
Fr, 15.10. 14:00 0.3 l/m2 in 6 Std. Regenschauer
Fr, 15.10. 8:00 0.6 l/m2 in 12 Std. Regen
Fr, 15.10. 2:00 0.0 l/m2 in 6 Std. -
Do, 14.10. 20:00 0.0 l/m2 in 12 Std. -
Do, 14.10. 14:00 0.0 l/m2 in 6 Std. -
Ortszeit Niederschlagsmenge Niederschlagsart
Sa, 16.10. 13:00 0.0 l/m2 in 1 Std. -
Sa, 16.10. 12:00 0.0 l/m2 in 1 Std. -
Sa, 16.10. 11:00 0.0 l/m2 in 1 Std. -
Sa, 16.10. 10:00 0.0 l/m2 in 1 Std. -
Sa, 16.10. 9:00 0.0 l/m2 in 1 Std. -
Sa, 16.10. 8:00 0.0 l/m2 in 1 Std. -
Ortszeit Stärke Spitze Richtung
km/h Bft. km/h Grad Sektor
Sa, 16.10. 8:00 7 2 14 250° W
Sa, 16.10. 2:00 11 2 14 260° W
Fr, 15.10. 20:00 7 2 14 250° W
Fr, 15.10. 14:00 22 4 43 300° NW
Fr, 15.10. 8:00 22 4 32 210° SW
Fr, 15.10. 2:00 14 3 29 220° SW
Do, 14.10. 20:00 14 3 - 210° SW
Do, 14.10. 14:00 14 3 - 210° SW
Ortszeit Stärke Spitze Richtung
km/h Bft. km/h Grad Sektor
Sa, 16.10. 13:00 14 3 29 250° W
Sa, 16.10. 12:00 14 3 29 250° W
Sa, 16.10. 11:00 14 3 32 260° W
Sa, 16.10. 10:00 14 3 25 260° W
Sa, 16.10. 9:00 14 3 22 250° W
Sa, 16.10. 8:00 7 2 14 250° W
Ortszeit Untergrenze Bedeckung Gattung
total tief tief mittel hoch
Sa, 16.10. 8:00 3000 m 2/8 2/8 - - -
Sa, 16.10. 2:00 - 0/8 0/8 - - -
Fr, 15.10. 20:00 - 0/8 0/8 - - -
Fr, 15.10. 14:00 720 m 6/8 6/8 - - -
Fr, 15.10. 8:00 240 m 8/8 8/8 - - -
Fr, 15.10. 2:00 480 m 8/8 8/8 - - -
Do, 14.10. 20:00 390 m 4/8 4/8 - - -
Do, 14.10. 14:00 270 m 8/8 8/8 - - -
Ortszeit Bedeckungsgrad in Achtel und Wolkenuntergrenze
Sa, 16.10. 13:00 keine Wolken
Sa, 16.10. 12:00 keine Wolken
Sa, 16.10. 11:00 keine Wolken
Sa, 16.10. 10:00 keine Wolken
Sa, 16.10. 9:00 3(2400m)
Sa, 16.10. 8:00 2(3000m)
Ortszeit Luftdruck NN (hPa) Tendenz (hPa in 3 Std.)
Sa, 16.10. 8:00 1003 - 0,8
Sa, 16.10. 2:00 1004 + 1,1
Fr, 15.10. 20:00 1000 + 2,3
Fr, 15.10. 14:00 994 + 1,4
Fr, 15.10. 8:00 993 - 2,6
Fr, 15.10. 2:00 998 - 2,7
Do, 14.10. 20:00 - - 2,0
Do, 14.10. 14:00 1008 - 1,9
Ortszeit Luftdruck NN (hPa) Tendenz (hPa in 3 Std.)
Sa, 16.10. 13:00 1004 0,0
Sa, 16.10. 12:00 1004 + 0,3
Sa, 16.10. 11:00 1004 + 0,3
Sa, 16.10. 10:00 1004 0,0
Sa, 16.10. 9:00 1003 - 0,6
Sa, 16.10. 8:00 1003 - 0,8
Ortszeit Schneehöhe (cm)
Sa, 16.10. 8:00 -
Sa, 16.10. 2:00 -
Fr, 15.10. 20:00 -
Fr, 15.10. 14:00 -
Fr, 15.10. 8:00 -
Fr, 15.10. 2:00 -
Do, 14.10. 20:00 -
Do, 14.10. 14:00 -
Ortszeit Schneehöhe (cm)
Sa, 16.10. 13:00 -
Sa, 16.10. 12:00 -
Sa, 16.10. 11:00 -
Sa, 16.10. 10:00 -
Sa, 16.10. 9:00 -
Sa, 16.10. 8:00 -
Link zu dieser Seite / Seite empfehlen

Das Wetter in ...